Map

Track Data

SID SEASON NUMBER BASIN SUBBASIN NAME ISO_TIME NATURE LAT LON WMO_WIND WMO_PRES WMO_AGENCY TRACK_TYPE DIST2LAND LANDFALL IFLAG USA_AGENCY USA_ATCF_ID USA_LAT USA_LON USA_RECORD USA_STATUS USA_WIND USA_PRES USA_SSHS USA_R34_NE USA_R34_SE USA_R34_SW USA_R34_NW USA_R50_NE USA_R50_SE USA_R50_SW USA_R50_NW USA_R64_NE USA_R64_SE USA_R64_SW USA_R64_NW USA_POCI USA_ROCI USA_RMW USA_EYE TOKYO_LAT TOKYO_LON TOKYO_GRADE TOKYO_WIND TOKYO_PRES TOKYO_R50_DIR TOKYO_R50_LONG TOKYO_R50_SHORT TOKYO_R30_DIR TOKYO_R30_LONG TOKYO_R30_SHORT TOKYO_LAND CMA_LAT CMA_LON CMA_CAT CMA_WIND CMA_PRES HKO_LAT HKO_LON HKO_CAT HKO_WIND HKO_PRES NEWDELHI_LAT NEWDELHI_LON NEWDELHI_GRADE NEWDELHI_WIND NEWDELHI_PRES NEWDELHI_CI NEWDELHI_DP NEWDELHI_POCI REUNION_LAT REUNION_LON REUNION_TYPE REUNION_WIND REUNION_PRES REUNION_TNUM REUNION_CI REUNION_RMW REUNION_R34_NE REUNION_R34_SE REUNION_R34_SW REUNION_R34_NW REUNION_R50_NE REUNION_R50_SE REUNION_R50_SW REUNION_R50_NW REUNION_R64_NE REUNION_R64_SE REUNION_R64_SW REUNION_R64_NW BOM_LAT BOM_LON BOM_TYPE BOM_WIND BOM_PRES BOM_TNUM BOM_CI BOM_RMW BOM_R34_NE BOM_R34_SE BOM_R34_SW BOM_R34_NW BOM_R50_NE BOM_R50_SE BOM_R50_SW BOM_R50_NW BOM_R64_NE BOM_R64_SE BOM_R64_SW BOM_R64_NW BOM_ROCI BOM_POCI BOM_EYE BOM_POS_METHOD BOM_PRES_METHOD NADI_LAT NADI_LON NADI_CAT NADI_WIND NADI_PRES WELLINGTON_LAT WELLINGTON_LON WELLINGTON_WIND WELLINGTON_PRES DS824_LAT DS824_LON DS824_STAGE DS824_WIND DS824_PRES TD9636_LAT TD9636_LON TD9636_STAGE TD9636_WIND TD9636_PRES TD9635_LAT TD9635_LON TD9635_WIND TD9635_PRES TD9635_ROCI NEUMANN_LAT NEUMANN_LON NEUMANN_CLASS NEUMANN_WIND NEUMANN_PRES MLC_LAT MLC_LON MLC_CLASS MLC_WIND MLC_PRES USA_GUST BOM_GUST BOM_GUST_PER REUNION_GUST REUNION_GUST_PER USA_SEAHGT USA_SEARAD_NE USA_SEARAD_SE USA_SEARAD_SW USA_SEARAD_NW STORM_SPEED STORM_DIR
1878257N19269 1878 21 NA GM NOT_NAMED 1878-09-13 12:00:00 TS 18.8000 -91.5000 main 0 0 _____________O -1 18.8000 -91.5000 TS 35 1 317
1878257N19269 1878 21 NA GM NOT_NAMED 1878-09-13 15:00:00 TS 18.8500 -91.5375 main 0 0 _____________P -1 18.8500 -91.5375 TS 35 1 317
1878257N19269 1878 21 NA GM NOT_NAMED 1878-09-13 18:00:00 TS 18.9000 -91.6000 main 10 10 _____________O -1 18.9000 -91.6000 TS 35 2 303
1878257N19269 1878 21 NA GM NOT_NAMED 1878-09-13 21:00:00 TS 18.9500 -91.7000 main 23 23 _____________P -1 18.9500 -91.7000 TS 35 2 298
1878257N19269 1878 21 NA GM NOT_NAMED 1878-09-14 00:00:00 TS 19.0000 -91.8000 main 33 33 _____________O -1 19.0000 -91.8000 TS 35 2 304
1878257N19269 1878 21 NA GM NOT_NAMED 1878-09-14 03:00:00 TS 19.0500 -91.8575 main 43 43 _____________P -1 19.0500 -91.8575 TS 35 1 317
1878257N19269 1878 21 NA GM NOT_NAMED 1878-09-14 06:00:00 TS 19.1000 -91.9000 main 47 47 _____________O -1 19.1000 -91.9000 TS 35 1 329
1878257N19269 1878 21 NA GM NOT_NAMED 1878-09-14 09:00:00 TS 19.1575 -91.9350 main 53 53 _____________P -1 19.1575 -91.9350 TS 35 1 317
1878257N19269 1878 21 NA GM NOT_NAMED 1878-09-14 12:00:00 TS 19.2000 -92.0000 main 62 62 _____________O -1 19.2000 -92.0000 TS 35 2 282
1878257N19269 1878 21 NA GM NOT_NAMED 1878-09-14 15:00:00 TS 19.2000 -92.1425 main 67 67 _____________P -1 19.2000 -92.1425 TS 35 3 270
1878257N19269 1878 21 NA GM NOT_NAMED 1878-09-14 18:00:00 TS 19.2000 -92.3000 main 67 67 _____________O -1 19.2000 -92.3000 TS 35 2 280
1878257N19269 1878 21 NA GM NOT_NAMED 1878-09-14 21:00:00 TS 19.2425 -92.4000 main 67 67 _____________P -1 19.2425 -92.4000 TS 35 2 298
1878257N19269 1878 21 NA GM NOT_NAMED 1878-09-15 00:00:00 TS 19.3000 -92.5000 main 78 78 _____________O -1 19.3000 -92.5000 TS 35 3 294
1878257N19269 1878 21 NA GM NOT_NAMED 1878-09-15 03:00:00 TS 19.3500 -92.6500 main 89 89 _____________P -1 19.3500 -92.6500 TS 35 3 290
1878257N19269 1878 21 NA GM NOT_NAMED 1878-09-15 06:00:00 TS 19.4000 -92.8000 main 90 90 _____________O -1 19.4000 -92.8000 TS 35 2 296
1878257N19269 1878 21 NA GM NOT_NAMED 1878-09-15 09:00:00 TS 19.4574 -92.8850 main 102 102 _____________P -1 19.4574 -92.8850 TS 35 2 298
1878257N19269 1878 21 NA GM NOT_NAMED 1878-09-15 12:00:00 TS 19.5000 -93.0000 main 105 105 _____________O -1 19.5000 -93.0000 TS 35 3 279
1878257N19269 1878 21 NA GM NOT_NAMED 1878-09-15 15:00:00 TS 19.5075 -93.2275 main 113 113 _____________P -1 19.5075 -93.2275 TS 35 5 270
1878257N19269 1878 21 NA GM NOT_NAMED 1878-09-15 18:00:00 TS 19.5000 -93.5000 main 131 131 _____________O -1 19.5000 -93.5000 TS 35 5 269
1878257N19269 1878 21 NA GM NOT_NAMED 1878-09-15 21:00:00 TS 19.5000 -93.7500 main 134 134 _____________P -1 19.5000 -93.7500 TS 35 5 270
1878257N19269 1878 21 NA GM NOT_NAMED 1878-09-16 00:00:00 TS 19.5000 -94.0000 main 134 131 _____________O -1 19.5000 -94.0000 TS 35 5 270
1878257N19269 1878 21 NA GM NOT_NAMED 1878-09-16 03:00:00 TS 19.5000 -94.2500 main 124 113 _____________P -1 19.5000 -94.2500 TS 35 5 270
1878257N19269 1878 21 NA GM NOT_NAMED 1878-09-16 06:00:00 TS 19.5000 -94.5000 main 113 98 _____________O -1 19.5000 -94.5000 TS 35 5 273
1878257N19269 1878 21 NA GM NOT_NAMED 1878-09-16 09:00:00 TS 19.5226 -94.7875 main 98 91 _____________P -1 19.5226 -94.7875 TS 35 5 270
1878257N19269 1878 21 NA GM NOT_NAMED 1878-09-16 12:00:00 TS 19.5000 -95.0000 main 91 81 _____________O -1 19.5000 -95.0000 TS 35 3 236
1878257N19269 1878 21 NA GM NOT_NAMED 1878-09-16 15:00:00 TS 19.3649 -95.0375 main 81 59 _____________P -1 19.3649 -95.0375 TS 35 3 0
1878257N19269 1878 21 NA GM NOT_NAMED 1878-09-16 18:00:00 TS 19.2000 -95.0000 main 59 49 _____________O -1 19.2000 -95.0000 TS 35 3 171
1878257N19269 1878 21 NA GM NOT_NAMED 1878-09-16 21:00:00 TS 19.1000 -95.0000 main 49 39 _____________P -1 19.1000 -95.0000 TS 35 2 172
1878257N19269 1878 21 NA GM NOT_NAMED 1878-09-17 00:00:00 TS 19.0000 -95.0000 main 39 30 _____________O -1 19.0000 -95.0000 TS 35 3 178
1878257N19269 1878 21 NA GM NOT_NAMED 1878-09-17 03:00:00 TS 18.8500 -95.0000 main 30 11 _____________P -1 18.8500 -95.0000 TS 32 3 0
1878257N19269 1878 21 NA GM NOT_NAMED 1878-09-17 06:00:00 TS 18.7000 -95.0000 main 11 0 _____________O -1 18.7000 -95.0000 TD 30 3 0
1878257N19269 1878 21 NA GM NOT_NAMED 1878-09-17 09:00:00 TS 18.5875 -95.0000 main 0 0 _____________P -1 18.5875 -95.0000 TD 27 2 172
1878257N19269 1878 21 NA NA NOT_NAMED 1878-09-17 12:00:00 TS 18.5000 -95.0000 main 0 _____________O -1 18.5000 -95.0000 TD 25 2 172

About IBTrACS Database

This database is a web-friendly format of International Best Track Archive for Climate Stewardship (IBTrACS), a global best track data archive curated by NOAA dating back to 1842.

Updated: 2021-10-25